sensor_id;sensor_type;location;lat;lon;timestamp;P1;durP1;ratioP1;P2;durP2;ratioP2
72951;SDS011;61102;51.956;5.878;2022-12-07T00:01:07;5.55;;;1.40;;
72951;SDS011;61102;51.956;5.878;2022-12-07T00:03:35;3.53;;;1.25;;
72951;SDS011;61102;51.956;5.878;2022-12-07T00:06:02;4.25;;;1.33;;
72951;SDS011;61102;51.956;5.878;2022-12-07T00:08:30;3.92;;;1.25;;
72951;SDS011;61102;51.956;5.878;2022-12-07T00:11:00;5.20;;;1.52;;
72951;SDS011;61102;51.956;5.878;2022-12-07T00:13:31;4.45;;;1.35;;
72951;SDS011;61102;51.956;5.878;2022-12-07T00:16:02;4.70;;;1.40;;
72951;SDS011;61102;51.956;5.878;2022-12-07T00:18:30;4.57;;;1.45;;
72951;SDS011;61102;51.956;5.878;2022-12-07T00:21:16;3.65;;;1.10;;
72951;SDS011;61102;51.956;5.878;2022-12-07T00:26:17;4.05;;;1.30;;
72951;SDS011;61102;51.956;5.878;2022-12-07T00:28:52;5.03;;;1.10;;
72951;SDS011;61102;51.956;5.878;2022-12-07T00:31:22;5.22;;;1.48;;
72951;SDS011;61102;51.956;5.878;2022-12-07T00:33:50;5.45;;;1.33;;
72951;SDS011;61102;51.956;5.878;2022-12-07T00:36:21;4.15;;;1.30;;
72951;SDS011;61102;51.956;5.878;2022-12-07T00:38:48;4.88;;;1.50;;
72951;SDS011;61102;51.956;5.878;2022-12-07T00:41:15;4.55;;;1.30;;
72951;SDS011;61102;51.956;5.878;2022-12-07T00:43:43;6.20;;;1.40;;
72951;SDS011;61102;51.956;5.878;2022-12-07T00:46:10;4.05;;;1.30;;
72951;SDS011;61102;51.956;5.878;2022-12-07T00:48:37;3.35;;;1.20;;
72951;SDS011;61102;51.956;5.878;2022-12-07T00:51:04;4.55;;;1.33;;
72951;SDS011;61102;51.956;5.878;2022-12-07T00:53:33;3.75;;;1.20;;
72951;SDS011;61102;51.956;5.878;2022-12-07T00:56:07;4.85;;;1.42;;
72951;SDS011;61102;51.956;5.878;2022-12-07T00:58:33;4.43;;;1.45;;
72951;SDS011;61102;51.956;5.878;2022-12-07T01:01:01;4.00;;;1.30;;
72951;SDS011;61102;51.956;5.878;2022-12-07T01:03:28;4.28;;;1.20;;
72951;SDS011;61102;51.956;5.878;2022-12-07T01:05:55;4.22;;;1.27;;
72951;SDS011;61102;51.956;5.878;2022-12-07T01:08:21;5.07;;;1.40;;
72951;SDS011;61102;51.956;5.878;2022-12-07T01:11:04;4.10;;;1.27;;
72951;SDS011;61102;51.956;5.878;2022-12-07T01:13:35;3.55;;;1.10;;
72951;SDS011;61102;51.956;5.878;2022-12-07T01:18:29;6.78;;;1.60;;
72951;SDS011;61102;51.956;5.878;2022-12-07T01:23:31;3.85;;;1.25;;
72951;SDS011;61102;51.956;5.878;2022-12-07T01:25:58;4.60;;;1.40;;
72951;SDS011;61102;51.956;5.878;2022-12-07T01:28:26;4.20;;;1.20;;
72951;SDS011;61102;51.956;5.878;2022-12-07T01:31:00;3.63;;;1.17;;
72951;SDS011;61102;51.956;5.878;2022-12-07T01:33:32;4.10;;;1.20;;
72951;SDS011;61102;51.956;5.878;2022-12-07T01:36:07;2.97;;;1.17;;
72951;SDS011;61102;51.956;5.878;2022-12-07T01:38:38;4.28;;;1.25;;
72951;SDS011;61102;51.956;5.878;2022-12-07T01:41:04;5.38;;;1.10;;
72951;SDS011;61102;51.956;5.878;2022-12-07T01:43:31;6.03;;;1.67;;
72951;SDS011;61102;51.956;5.878;2022-12-07T01:45:59;4.55;;;1.48;;
72951;SDS011;61102;51.956;5.878;2022-12-07T01:48:27;3.83;;;1.10;;
72951;SDS011;61102;51.956;5.878;2022-12-07T01:51:00;4.65;;;1.40;;
72951;SDS011;61102;51.956;5.878;2022-12-07T01:53:30;3.67;;;1.30;;
72951;SDS011;61102;51.956;5.878;2022-12-07T01:55:59;3.22;;;1.00;;
72951;SDS011;61102;51.956;5.878;2022-12-07T01:58:26;5.82;;;1.88;;
72951;SDS011;61102;51.956;5.878;2022-12-07T02:00:52;4.18;;;1.20;;
72951;SDS011;61102;51.956;5.878;2022-12-07T02:03:31;4.03;;;1.20;;
72951;SDS011;61102;51.956;5.878;2022-12-07T02:06:01;3.95;;;1.10;;
72951;SDS011;61102;51.956;5.878;2022-12-07T02:08:28;4.68;;;1.40;;
72951;SDS011;61102;51.956;5.878;2022-12-07T02:10:54;4.07;;;1.10;;
72951;SDS011;61102;51.956;5.878;2022-12-07T02:13:25;4.05;;;1.13;;
72951;SDS011;61102;51.956;5.878;2022-12-07T02:18:54;3.33;;;1.13;;
72951;SDS011;61102;51.956;5.878;2022-12-07T02:27:17;2.85;;;0.90;;
72951;SDS011;61102;51.956;5.878;2022-12-07T02:30:11;3.67;;;1.17;;
72951;SDS011;61102;51.956;5.878;2022-12-07T02:35:12;3.83;;;1.40;;
72951;SDS011;61102;51.956;5.878;2022-12-07T02:37:52;4.35;;;1.30;;
72951;SDS011;61102;51.956;5.878;2022-12-07T02:43:06;3.85;;;1.23;;
72951;SDS011;61102;51.956;5.878;2022-12-07T02:45:36;3.10;;;1.05;;
72951;SDS011;61102;51.956;5.878;2022-12-07T02:48:06;3.42;;;1.20;;
72951;SDS011;61102;51.956;5.878;2022-12-07T02:50:34;4.65;;;1.20;;
72951;SDS011;61102;51.956;5.878;2022-12-07T02:53:00;3.22;;;1.10;;
72951;SDS011;61102;51.956;5.878;2022-12-07T02:55:28;4.88;;;1.20;;
72951;SDS011;61102;51.956;5.878;2022-12-07T03:01:11;3.10;;;1.02;;
72951;SDS011;61102;51.956;5.878;2022-12-07T03:03:58;2.90;;;0.93;;
72951;SDS011;61102;51.956;5.878;2022-12-07T03:06:39;2.55;;;0.93;;
72951;SDS011;61102;51.956;5.878;2022-12-07T03:09:14;2.97;;;1.00;;
72951;SDS011;61102;51.956;5.878;2022-12-07T03:11:57;3.85;;;1.02;;
72951;SDS011;61102;51.956;5.878;2022-12-07T03:14:32;4.63;;;1.15;;
72951;SDS011;61102;51.956;5.878;2022-12-07T03:17:07;5.78;;;0.85;;
72951;SDS011;61102;51.956;5.878;2022-12-07T03:19:41;3.97;;;1.00;;
72951;SDS011;61102;51.956;5.878;2022-12-07T03:22:09;3.47;;;1.10;;
72951;SDS011;61102;51.956;5.878;2022-12-07T03:24:57;4.72;;;1.23;;
72951;SDS011;61102;51.956;5.878;2022-12-07T03:27:33;4.50;;;1.00;;
72951;SDS011;61102;51.956;5.878;2022-12-07T03:30:04;3.75;;;0.98;;
72951;SDS011;61102;51.956;5.878;2022-12-07T03:32:36;5.07;;;1.40;;
72951;SDS011;61102;51.956;5.878;2022-12-07T03:37:56;3.70;;;1.15;;
72951;SDS011;61102;51.956;5.878;2022-12-07T03:40:37;2.90;;;0.88;;
72951;SDS011;61102;51.956;5.878;2022-12-07T03:43:07;3.85;;;1.02;;
72951;SDS011;61102;51.956;5.878;2022-12-07T03:45:38;2.60;;;0.82;;
72951;SDS011;61102;51.956;5.878;2022-12-07T03:48:15;2.28;;;0.90;;
72951;SDS011;61102;51.956;5.878;2022-12-07T03:51:21;2.33;;;0.85;;
72951;SDS011;61102;51.956;5.878;2022-12-07T03:54:36;3.92;;;1.08;;
72951;SDS011;61102;51.956;5.878;2022-12-07T03:56:54;6.82;;;1.50;;
72951;SDS011;61102;51.956;5.878;2022-12-07T03:59:22;5.25;;;1.10;;
72951;SDS011;61102;51.956;5.878;2022-12-07T04:01:54;3.60;;;0.93;;
72951;SDS011;61102;51.956;5.878;2022-12-07T04:04:23;4.38;;;1.30;;
72951;SDS011;61102;51.956;5.878;2022-12-07T04:06:50;4.75;;;1.20;;
72951;SDS011;61102;51.956;5.878;2022-12-07T04:09:16;3.50;;;0.98;;
72951;SDS011;61102;51.956;5.878;2022-12-07T04:11:43;2.92;;;1.00;;
72951;SDS011;61102;51.956;5.878;2022-12-07T04:14:09;3.42;;;0.82;;
72951;SDS011;61102;51.956;5.878;2022-12-07T04:16:48;2.90;;;0.98;;
72951;SDS011;61102;51.956;5.878;2022-12-07T04:19:14;3.47;;;0.80;;
72951;SDS011;61102;51.956;5.878;2022-12-07T04:21:42;4.85;;;1.13;;
72951;SDS011;61102;51.956;5.878;2022-12-07T04:24:08;4.30;;;1.00;;
72951;SDS011;61102;51.956;5.878;2022-12-07T04:26:35;2.20;;;0.70;;
72951;SDS011;61102;51.956;5.878;2022-12-07T04:29:01;5.43;;;1.00;;
72951;SDS011;61102;51.956;5.878;2022-12-07T04:31:27;4.40;;;0.90;;
72951;SDS011;61102;51.956;5.878;2022-12-07T04:33:54;4.43;;;0.90;;
72951;SDS011;61102;51.956;5.878;2022-12-07T04:36:20;3.38;;;1.00;;
72951;SDS011;61102;51.956;5.878;2022-12-07T04:38:46;5.30;;;1.10;;
72951;SDS011;61102;51.956;5.878;2022-12-07T04:41:13;4.13;;;0.80;;
72951;SDS011;61102;51.956;5.878;2022-12-07T04:43:39;2.97;;;0.90;;
72951;SDS011;61102;51.956;5.878;2022-12-07T04:46:05;4.60;;;1.15;;
72951;SDS011;61102;51.956;5.878;2022-12-07T04:48:31;3.42;;;0.95;;
72951;SDS011;61102;51.956;5.878;2022-12-07T04:50:57;4.07;;;0.93;;
72951;SDS011;61102;51.956;5.878;2022-12-07T04:53:23;1.88;;;0.70;;
72951;SDS011;61102;51.956;5.878;2022-12-07T04:55:49;2.95;;;0.85;;
72951;SDS011;61102;51.956;5.878;2022-12-07T04:58:15;4.45;;;1.00;;
72951;SDS011;61102;51.956;5.878;2022-12-07T05:00:41;3.67;;;0.95;;
72951;SDS011;61102;51.956;5.878;2022-12-07T05:03:07;3.92;;;1.15;;
72951;SDS011;61102;51.956;5.878;2022-12-07T05:05:33;3.53;;;0.77;;
72951;SDS011;61102;51.956;5.878;2022-12-07T05:07:59;2.92;;;0.93;;
72951;SDS011;61102;51.956;5.878;2022-12-07T05:10:25;3.78;;;0.90;;
72951;SDS011;61102;51.956;5.878;2022-12-07T05:12:51;3.78;;;0.90;;
72951;SDS011;61102;51.956;5.878;2022-12-07T05:15:17;2.40;;;0.70;;
72951;SDS011;61102;51.956;5.878;2022-12-07T05:17:44;3.03;;;0.70;;
72951;SDS011;61102;51.956;5.878;2022-12-07T05:20:10;3.28;;;0.80;;
72951;SDS011;61102;51.956;5.878;2022-12-07T05:22:36;2.38;;;0.70;;
72951;SDS011;61102;51.956;5.878;2022-12-07T05:25:02;4.40;;;0.90;;
72951;SDS011;61102;51.956;5.878;2022-12-07T05:27:28;3.00;;;0.77;;
72951;SDS011;61102;51.956;5.878;2022-12-07T05:29:54;2.47;;;0.80;;
72951;SDS011;61102;51.956;5.878;2022-12-07T05:32:20;3.53;;;1.00;;
72951;SDS011;61102;51.956;5.878;2022-12-07T05:34:46;4.10;;;0.82;;
72951;SDS011;61102;51.956;5.878;2022-12-07T05:37:14;4.88;;;0.90;;
72951;SDS011;61102;51.956;5.878;2022-12-07T05:39:42;3.85;;;1.02;;
72951;SDS011;61102;51.956;5.878;2022-12-07T05:44:39;2.42;;;0.80;;
72951;SDS011;61102;51.956;5.878;2022-12-07T05:47:07;3.97;;;0.90;;
72951;SDS011;61102;51.956;5.878;2022-12-07T05:49:33;2.78;;;0.70;;
72951;SDS011;61102;51.956;5.878;2022-12-07T05:51:59;2.88;;;0.88;;
72951;SDS011;61102;51.956;5.878;2022-12-07T05:54:25;3.22;;;0.68;;
72951;SDS011;61102;51.956;5.878;2022-12-07T05:56:51;4.38;;;0.77;;
72951;SDS011;61102;51.956;5.878;2022-12-07T05:59:17;2.83;;;0.88;;
72951;SDS011;61102;51.956;5.878;2022-12-07T06:04:20;4.93;;;0.88;;
72951;SDS011;61102;51.956;5.878;2022-12-07T06:06:47;3.38;;;0.88;;
72951;SDS011;61102;51.956;5.878;2022-12-07T06:09:14;3.45;;;0.70;;
72951;SDS011;61102;51.956;5.878;2022-12-07T06:11:40;3.13;;;0.63;;
72951;SDS011;61102;51.956;5.878;2022-12-07T06:14:25;1.70;;;0.60;;
72951;SDS011;61102;51.956;5.878;2022-12-07T06:16:51;1.67;;;0.70;;
72951;SDS011;61102;51.956;5.878;2022-12-07T06:19:17;4.88;;;0.85;;
72951;SDS011;61102;51.956;5.878;2022-12-07T06:21:43;2.28;;;0.75;;
72951;SDS011;61102;51.956;5.878;2022-12-07T06:24:11;2.05;;;0.60;;
72951;SDS011;61102;51.956;5.878;2022-12-07T06:26:38;2.58;;;0.70;;
72951;SDS011;61102;51.956;5.878;2022-12-07T06:29:04;5.28;;;0.95;;
72951;SDS011;61102;51.956;5.878;2022-12-07T06:31:31;2.53;;;0.70;;
72951;SDS011;61102;51.956;5.878;2022-12-07T06:33:58;5.32;;;0.90;;
72951;SDS011;61102;51.956;5.878;2022-12-07T06:36:28;3.05;;;1.02;;
72951;SDS011;61102;51.956;5.878;2022-12-07T06:38:54;1.75;;;0.70;;
72951;SDS011;61102;51.956;5.878;2022-12-07T06:41:22;2.28;;;0.75;;
72951;SDS011;61102;51.956;5.878;2022-12-07T06:43:49;1.83;;;0.57;;
72951;SDS011;61102;51.956;5.878;2022-12-07T06:46:16;4.25;;;0.70;;
72951;SDS011;61102;51.956;5.878;2022-12-07T06:48:42;3.42;;;0.80;;
72951;SDS011;61102;51.956;5.878;2022-12-07T06:51:09;3.83;;;0.80;;
72951;SDS011;61102;51.956;5.878;2022-12-07T06:53:36;3.03;;;0.60;;
72951;SDS011;61102;51.956;5.878;2022-12-07T06:56:03;1.60;;;0.55;;
72951;SDS011;61102;51.956;5.878;2022-12-07T06:58:30;2.33;;;0.70;;
72951;SDS011;61102;51.956;5.878;2022-12-07T07:00:56;2.58;;;0.75;;
72951;SDS011;61102;51.956;5.878;2022-12-07T07:03:22;2.45;;;0.52;;
72951;SDS011;61102;51.956;5.878;2022-12-07T07:05:48;3.67;;;0.50;;
72951;SDS011;61102;51.956;5.878;2022-12-07T07:08:14;3.00;;;0.60;;
72951;SDS011;61102;51.956;5.878;2022-12-07T07:10:40;2.17;;;0.50;;
72951;SDS011;61102;51.956;5.878;2022-12-07T07:13:07;2.05;;;0.52;;
72951;SDS011;61102;51.956;5.878;2022-12-07T07:15:34;3.45;;;0.60;;
72951;SDS011;61102;51.956;5.878;2022-12-07T07:18:00;2.78;;;0.52;;
72951;SDS011;61102;51.956;5.878;2022-12-07T07:20:27;3.35;;;0.70;;
72951;SDS011;61102;51.956;5.878;2022-12-07T07:22:56;1.85;;;0.70;;
72951;SDS011;61102;51.956;5.878;2022-12-07T07:25:22;3.10;;;0.90;;
72951;SDS011;61102;51.956;5.878;2022-12-07T07:27:48;3.00;;;0.60;;
72951;SDS011;61102;51.956;5.878;2022-12-07T07:30:14;2.70;;;0.50;;
72951;SDS011;61102;51.956;5.878;2022-12-07T07:32:40;1.67;;;0.50;;
72951;SDS011;61102;51.956;5.878;2022-12-07T07:35:06;3.15;;;0.65;;
72951;SDS011;61102;51.956;5.878;2022-12-07T07:37:35;1.65;;;0.50;;
72951;SDS011;61102;51.956;5.878;2022-12-07T07:40:02;1.75;;;0.43;;
72951;SDS011;61102;51.956;5.878;2022-12-07T07:49:28;4.45;;;0.75;;
72951;SDS011;61102;51.956;5.878;2022-12-07T07:51:54;1.65;;;0.60;;
72951;SDS011;61102;51.956;5.878;2022-12-07T07:54:20;3.58;;;0.68;;
72951;SDS011;61102;51.956;5.878;2022-12-07T07:56:46;2.08;;;0.57;;
72951;SDS011;61102;51.956;5.878;2022-12-07T07:59:12;3.78;;;0.50;;
72951;SDS011;61102;51.956;5.878;2022-12-07T08:01:39;0.68;;;0.30;;
72951;SDS011;61102;51.956;5.878;2022-12-07T08:04:05;3.30;;;0.63;;
72951;SDS011;61102;51.956;5.878;2022-12-07T08:06:32;1.83;;;0.40;;
72951;SDS011;61102;51.956;5.878;2022-12-07T08:08:58;1.00;;;0.40;;
72951;SDS011;61102;51.956;5.878;2022-12-07T08:11:24;2.90;;;0.88;;
72951;SDS011;61102;51.956;5.878;2022-12-07T08:13:50;3.47;;;0.65;;
72951;SDS011;61102;51.956;5.878;2022-12-07T08:16:17;2.67;;;0.50;;
72951;SDS011;61102;51.956;5.878;2022-12-07T09:46:32;6.25;;;1.50;;
72951;SDS011;61102;51.956;5.878;2022-12-07T09:49:02;5.03;;;1.20;;
72951;SDS011;61102;51.956;5.878;2022-12-07T09:51:29;4.82;;;1.05;;
72951;SDS011;61102;51.956;5.878;2022-12-07T09:53:56;4.38;;;0.93;;
72951;SDS011;61102;51.956;5.878;2022-12-07T09:58:51;3.00;;;0.68;;
72951;SDS011;61102;51.956;5.878;2022-12-07T10:01:24;5.00;;;1.10;;
72951;SDS011;61102;51.956;5.878;2022-12-07T10:03:51;5.07;;;0.95;;
72951;SDS011;61102;51.956;5.878;2022-12-07T10:06:19;6.53;;;1.70;;
72951;SDS011;61102;51.956;5.878;2022-12-07T10:08:46;5.75;;;1.10;;
72951;SDS011;61102;51.956;5.878;2022-12-07T10:11:12;5.60;;;1.10;;
72951;SDS011;61102;51.956;5.878;2022-12-07T10:13:44;5.25;;;1.00;;
72951;SDS011;61102;51.956;5.878;2022-12-07T10:16:57;4.35;;;0.93;;
72951;SDS011;61102;51.956;5.878;2022-12-07T10:19:25;4.82;;;1.00;;
72951;SDS011;61102;51.956;5.878;2022-12-07T10:22:00;3.15;;;1.00;;
72951;SDS011;61102;51.956;5.878;2022-12-07T10:24:41;3.10;;;0.73;;
72951;SDS011;61102;51.956;5.878;2022-12-07T10:29:49;7.10;;;1.02;;
72951;SDS011;61102;51.956;5.878;2022-12-07T10:34:43;4.82;;;1.10;;
72951;SDS011;61102;51.956;5.878;2022-12-07T10:39:43;3.80;;;0.88;;
72951;SDS011;61102;51.956;5.878;2022-12-07T10:44:45;3.92;;;0.80;;
72951;SDS011;61102;51.956;5.878;2022-12-07T10:55:39;5.00;;;0.93;;
72951;SDS011;61102;51.956;5.878;2022-12-07T10:58:13;4.60;;;0.90;;
72951;SDS011;61102;51.956;5.878;2022-12-07T11:01:43;5.22;;;0.90;;
72951;SDS011;61102;51.956;5.878;2022-12-07T11:06:54;3.38;;;0.73;;
72951;SDS011;61102;51.956;5.878;2022-12-07T11:09:40;3.90;;;0.60;;
72951;SDS011;61102;51.956;5.878;2022-12-07T11:17:45;3.47;;;0.52;;
72951;SDS011;61102;51.956;5.878;2022-12-07T11:20:32;3.72;;;0.50;;
72951;SDS011;61102;51.956;5.878;2022-12-07T11:31:59;3.60;;;0.75;;
72951;SDS011;61102;51.956;5.878;2022-12-07T11:35:05;3.65;;;0.80;;
72951;SDS011;61102;51.956;5.878;2022-12-07T11:37:39;5.32;;;0.90;;
72951;SDS011;61102;51.956;5.878;2022-12-07T11:46:14;4.72;;;0.63;;
72951;SDS011;61102;51.956;5.878;2022-12-07T11:48:45;2.10;;;0.57;;
72951;SDS011;61102;51.956;5.878;2022-12-07T11:51:18;4.90;;;0.70;;
72951;SDS011;61102;51.956;5.878;2022-12-07T11:53:55;5.82;;;0.70;;
72951;SDS011;61102;51.956;5.878;2022-12-07T11:56:25;2.60;;;0.50;;
72951;SDS011;61102;51.956;5.878;2022-12-07T11:59:00;4.47;;;0.70;;
72951;SDS011;61102;51.956;5.878;2022-12-07T12:02:15;4.45;;;0.70;;
72951;SDS011;61102;51.956;5.878;2022-12-07T12:04:54;3.28;;;0.80;;
72951;SDS011;61102;51.956;5.878;2022-12-07T12:07:38;9.10;;;1.40;;
72951;SDS011;61102;51.956;5.878;2022-12-07T12:10:13;5.13;;;0.77;;
72951;SDS011;61102;51.956;5.878;2022-12-07T12:13:54;4.07;;;0.85;;
72951;SDS011;61102;51.956;5.878;2022-12-07T12:16:06;3.50;;;0.70;;
72951;SDS011;61102;51.956;5.878;2022-12-07T12:21:53;3.78;;;0.80;;
72951;SDS011;61102;51.956;5.878;2022-12-07T12:24:24;5.82;;;0.90;;
72951;SDS011;61102;51.956;5.878;2022-12-07T12:26:53;2.38;;;0.57;;
72951;SDS011;61102;51.956;5.878;2022-12-07T12:29:32;2.72;;;0.55;;
72951;SDS011;61102;51.956;5.878;2022-12-07T12:32:11;2.95;;;0.60;;
72951;SDS011;61102;51.956;5.878;2022-12-07T12:34:42;3.00;;;0.52;;
72951;SDS011;61102;51.956;5.878;2022-12-07T12:40:34;7.32;;;0.95;;
72951;SDS011;61102;51.956;5.878;2022-12-07T12:42:57;4.20;;;0.70;;
72951;SDS011;61102;51.956;5.878;2022-12-07T12:45:27;4.97;;;0.55;;
72951;SDS011;61102;51.956;5.878;2022-12-07T12:48:00;2.38;;;0.50;;
72951;SDS011;61102;51.956;5.878;2022-12-07T12:58:28;6.72;;;0.73;;
72951;SDS011;61102;51.956;5.878;2022-12-07T13:04:01;5.10;;;0.70;;
72951;SDS011;61102;51.956;5.878;2022-12-07T13:09:00;4.65;;;0.77;;
72951;SDS011;61102;51.956;5.878;2022-12-07T13:11:41;2.60;;;0.50;;
72951;SDS011;61102;51.956;5.878;2022-12-07T13:17:10;2.97;;;0.52;;
72951;SDS011;61102;51.956;5.878;2022-12-07T13:24:59;6.43;;;1.00;;
72951;SDS011;61102;51.956;5.878;2022-12-07T13:27:37;5.72;;;1.45;;
72951;SDS011;61102;51.956;5.878;2022-12-07T13:30:39;6.38;;;1.15;;
72951;SDS011;61102;51.956;5.878;2022-12-07T13:32:59;8.32;;;1.70;;
72951;SDS011;61102;51.956;5.878;2022-12-07T13:38:01;5.72;;;1.05;;
72951;SDS011;61102;51.956;5.878;2022-12-07T13:40:29;6.05;;;1.50;;
72951;SDS011;61102;51.956;5.878;2022-12-07T13:43:02;7.07;;;1.33;;
72951;SDS011;61102;51.956;5.878;2022-12-07T13:45:30;7.13;;;1.33;;
72951;SDS011;61102;51.956;5.878;2022-12-07T13:50:59;5.60;;;0.90;;
72951;SDS011;61102;51.956;5.878;2022-12-07T13:53:26;3.88;;;0.75;;
72951;SDS011;61102;51.956;5.878;2022-12-07T13:55:56;4.13;;;0.80;;
72951;SDS011;61102;51.956;5.878;2022-12-07T14:00:52;5.80;;;0.82;;
72951;SDS011;61102;51.956;5.878;2022-12-07T14:05:44;4.93;;;0.88;;
72951;SDS011;61102;51.956;5.878;2022-12-07T14:10:38;7.70;;;1.05;;
72951;SDS011;61102;51.956;5.878;2022-12-07T14:15:59;5.43;;;0.80;;
72951;SDS011;61102;51.956;5.878;2022-12-07T14:18:28;4.53;;;0.75;;
72951;SDS011;61102;51.956;5.878;2022-12-07T14:23:36;4.75;;;0.60;;
72951;SDS011;61102;51.956;5.878;2022-12-07T14:28:40;2.28;;;0.60;;
72951;SDS011;61102;51.956;5.878;2022-12-07T14:31:17;2.38;;;0.40;;
72951;SDS011;61102;51.956;5.878;2022-12-07T14:33:45;6.53;;;0.70;;
72951;SDS011;61102;51.956;5.878;2022-12-07T14:36:12;4.30;;;0.60;;
72951;SDS011;61102;51.956;5.878;2022-12-07T14:38:39;4.40;;;0.68;;
72951;SDS011;61102;51.956;5.878;2022-12-07T14:41:06;2.80;;;0.50;;
72951;SDS011;61102;51.956;5.878;2022-12-07T14:43:57;3.60;;;0.60;;
72951;SDS011;61102;51.956;5.878;2022-12-07T14:46:24;4.03;;;0.50;;
72951;SDS011;61102;51.956;5.878;2022-12-07T14:48:50;3.63;;;0.60;;
72951;SDS011;61102;51.956;5.878;2022-12-07T14:51:16;3.45;;;0.60;;
72951;SDS011;61102;51.956;5.878;2022-12-07T14:53:46;1.65;;;0.30;;
72951;SDS011;61102;51.956;5.878;2022-12-07T14:56:16;3.50;;;0.55;;
72951;SDS011;61102;51.956;5.878;2022-12-07T14:58:43;2.95;;;0.40;;
72951;SDS011;61102;51.956;5.878;2022-12-07T15:01:09;1.70;;;0.40;;
72951;SDS011;61102;51.956;5.878;2022-12-07T15:03:35;1.35;;;0.30;;
72951;SDS011;61102;51.956;5.878;2022-12-07T15:06:03;3.00;;;0.30;;
72951;SDS011;61102;51.956;5.878;2022-12-07T15:08:29;2.90;;;0.35;;
72951;SDS011;61102;51.956;5.878;2022-12-07T15:10:56;1.25;;;0.32;;
72951;SDS011;61102;51.956;5.878;2022-12-07T15:13:23;2.40;;;0.50;;
72951;SDS011;61102;51.956;5.878;2022-12-07T15:16:10;2.22;;;0.30;;
72951;SDS011;61102;51.956;5.878;2022-12-07T15:18:40;0.68;;;0.30;;
72951;SDS011;61102;51.956;5.878;2022-12-07T15:21:10;1.70;;;0.38;;
72951;SDS011;61102;51.956;5.878;2022-12-07T15:26:06;1.58;;;0.25;;
72951;SDS011;61102;51.956;5.878;2022-12-07T15:28:33;2.95;;;0.40;;
72951;SDS011;61102;51.956;5.878;2022-12-07T15:31:00;4.68;;;0.55;;
72951;SDS011;61102;51.956;5.878;2022-12-07T15:33:26;2.03;;;0.50;;
72951;SDS011;61102;51.956;5.878;2022-12-07T15:35:53;2.67;;;0.77;;
72951;SDS011;61102;51.956;5.878;2022-12-07T15:38:19;2.85;;;0.60;;
72951;SDS011;61102;51.956;5.878;2022-12-07T15:40:48;5.20;;;1.00;;
72951;SDS011;61102;51.956;5.878;2022-12-07T15:43:17;2.47;;;0.70;;
72951;SDS011;61102;51.956;5.878;2022-12-07T15:46:06;2.55;;;0.73;;
72951;SDS011;61102;51.956;5.878;2022-12-07T15:48:32;1.52;;;0.50;;
72951;SDS011;61102;51.956;5.878;2022-12-07T15:51:02;4.00;;;0.60;;
72951;SDS011;61102;51.956;5.878;2022-12-07T15:53:29;5.18;;;1.00;;
72951;SDS011;61102;51.956;5.878;2022-12-07T15:55:55;3.13;;;0.50;;
72951;SDS011;61102;51.956;5.878;2022-12-07T15:58:21;4.13;;;0.75;;
72951;SDS011;61102;51.956;5.878;2022-12-07T16:00:47;3.42;;;0.70;;
72951;SDS011;61102;51.956;5.878;2022-12-07T16:03:13;3.17;;;0.50;;
72951;SDS011;61102;51.956;5.878;2022-12-07T16:05:39;2.88;;;0.55;;
72951;SDS011;61102;51.956;5.878;2022-12-07T16:08:05;3.83;;;0.65;;
72951;SDS011;61102;51.956;5.878;2022-12-07T16:10:38;2.85;;;0.60;;
72951;SDS011;61102;51.956;5.878;2022-12-07T16:13:04;3.03;;;0.55;;
72951;SDS011;61102;51.956;5.878;2022-12-07T16:15:30;3.42;;;0.70;;
72951;SDS011;61102;51.956;5.878;2022-12-07T16:17:56;2.60;;;0.65;;
72951;SDS011;61102;51.956;5.878;2022-12-07T16:20:22;1.50;;;0.50;;
72951;SDS011;61102;51.956;5.878;2022-12-07T16:22:50;3.55;;;0.60;;
72951;SDS011;61102;51.956;5.878;2022-12-07T16:25:17;3.65;;;0.50;;
72951;SDS011;61102;51.956;5.878;2022-12-07T16:27:43;4.03;;;0.65;;
72951;SDS011;61102;51.956;5.878;2022-12-07T16:30:11;3.17;;;0.50;;
72951;SDS011;61102;51.956;5.878;2022-12-07T16:32:38;2.00;;;0.57;;
72951;SDS011;61102;51.956;5.878;2022-12-07T16:35:04;2.58;;;0.40;;
72951;SDS011;61102;51.956;5.878;2022-12-07T16:40:58;2.42;;;0.57;;
72951;SDS011;61102;51.956;5.878;2022-12-07T16:43:25;3.08;;;0.45;;
72951;SDS011;61102;51.956;5.878;2022-12-07T16:48:44;2.30;;;0.60;;
72951;SDS011;61102;51.956;5.878;2022-12-07T16:51:10;2.10;;;0.57;;
72951;SDS011;61102;51.956;5.878;2022-12-07T16:53:38;3.03;;;0.43;;
72951;SDS011;61102;51.956;5.878;2022-12-07T16:56:10;2.28;;;0.65;;
72951;SDS011;61102;51.956;5.878;2022-12-07T16:58:37;1.65;;;0.40;;
72951;SDS011;61102;51.956;5.878;2022-12-07T17:01:13;2.30;;;0.60;;
72951;SDS011;61102;51.956;5.878;2022-12-07T17:03:44;1.27;;;0.40;;
72951;SDS011;61102;51.956;5.878;2022-12-07T17:06:14;2.42;;;0.80;;
72951;SDS011;61102;51.956;5.878;2022-12-07T17:08:42;3.15;;;0.73;;
72951;SDS011;61102;51.956;5.878;2022-12-07T17:11:09;5.28;;;0.82;;
72951;SDS011;61102;51.956;5.878;2022-12-07T17:13:37;2.33;;;0.57;;
72951;SDS011;61102;51.956;5.878;2022-12-07T17:16:21;2.20;;;0.70;;
72951;SDS011;61102;51.956;5.878;2022-12-07T17:18:47;1.27;;;0.50;;
72951;SDS011;61102;51.956;5.878;2022-12-07T17:21:13;3.08;;;0.82;;
72951;SDS011;61102;51.956;5.878;2022-12-07T17:23:40;1.48;;;0.50;;
72951;SDS011;61102;51.956;5.878;2022-12-07T17:26:14;1.33;;;0.40;;
72951;SDS011;61102;51.956;5.878;2022-12-07T17:28:48;2.10;;;0.60;;
72951;SDS011;61102;51.956;5.878;2022-12-07T17:31:16;1.90;;;0.50;;
72951;SDS011;61102;51.956;5.878;2022-12-07T17:33:44;3.58;;;0.55;;
72951;SDS011;61102;51.956;5.878;2022-12-07T17:36:11;1.75;;;0.60;;
72951;SDS011;61102;51.956;5.878;2022-12-07T17:38:38;2.10;;;0.50;;
72951;SDS011;61102;51.956;5.878;2022-12-07T17:41:12;2.38;;;0.68;;
72951;SDS011;61102;51.956;5.878;2022-12-07T17:44:00;4.07;;;0.75;;
72951;SDS011;61102;51.956;5.878;2022-12-07T17:46:27;2.78;;;0.88;;
72951;SDS011;61102;51.956;5.878;2022-12-07T17:48:54;1.38;;;0.50;;
72951;SDS011;61102;51.956;5.878;2022-12-07T17:51:20;2.50;;;0.70;;
72951;SDS011;61102;51.956;5.878;2022-12-07T17:54:05;2.55;;;0.75;;
72951;SDS011;61102;51.956;5.878;2022-12-07T17:59:45;0.65;;;0.43;;
72951;SDS011;61102;51.956;5.878;2022-12-07T18:06:44;1.55;;;0.40;;
72951;SDS011;61102;51.956;5.878;2022-12-07T18:09:32;3.60;;;0.73;;
72951;SDS011;61102;51.956;5.878;2022-12-07T18:11:58;3.78;;;0.75;;
72951;SDS011;61102;51.956;5.878;2022-12-07T18:14:24;2.33;;;0.73;;
72951;SDS011;61102;51.956;5.878;2022-12-07T18:16:50;3.25;;;0.77;;
72951;SDS011;61102;51.956;5.878;2022-12-07T18:19:22;3.47;;;0.73;;
72951;SDS011;61102;51.956;5.878;2022-12-07T18:22:07;3.38;;;0.70;;
72951;SDS011;61102;51.956;5.878;2022-12-07T18:24:33;2.35;;;0.60;;
72951;SDS011;61102;51.956;5.878;2022-12-07T18:26:59;2.90;;;0.70;;
72951;SDS011;61102;51.956;5.878;2022-12-07T18:29:25;2.90;;;0.80;;
72951;SDS011;61102;51.956;5.878;2022-12-07T18:31:51;6.53;;;1.05;;
72951;SDS011;61102;51.956;5.878;2022-12-07T18:34:18;3.03;;;0.90;;
72951;SDS011;61102;51.956;5.878;2022-12-07T18:36:44;2.72;;;0.88;;
72951;SDS011;61102;51.956;5.878;2022-12-07T18:41:39;3.53;;;1.00;;
72951;SDS011;61102;51.956;5.878;2022-12-07T18:44:06;2.63;;;0.80;;
72951;SDS011;61102;51.956;5.878;2022-12-07T18:46:33;3.97;;;0.80;;
72951;SDS011;61102;51.956;5.878;2022-12-07T18:49:00;4.80;;;0.90;;
72951;SDS011;61102;51.956;5.878;2022-12-07T18:51:26;2.90;;;0.70;;
72951;SDS011;61102;51.956;5.878;2022-12-07T18:53:58;4.32;;;0.90;;
72951;SDS011;61102;51.956;5.878;2022-12-07T18:56:29;4.95;;;1.10;;
72951;SDS011;61102;51.956;5.878;2022-12-07T18:59:01;5.03;;;1.05;;
72951;SDS011;61102;51.956;5.878;2022-12-07T19:01:55;3.30;;;0.75;;
72951;SDS011;61102;51.956;5.878;2022-12-07T19:04:22;3.50;;;0.93;;
72951;SDS011;61102;51.956;5.878;2022-12-07T19:07:00;3.15;;;0.73;;